sensor_id;sensor_type;location;lat;lon;timestamp;P1;durP1;ratioP1;P2;durP2;ratioP2
55346;SDS011;41218;55.700;38.270;2023-09-18T00:01:43;12.87;;;7.00;;
55346;SDS011;41218;55.700;38.270;2023-09-18T00:06:44;12.48;;;6.88;;
55346;SDS011;41218;55.700;38.270;2023-09-18T00:11:45;13.07;;;6.47;;
55346;SDS011;41218;55.700;38.270;2023-09-18T00:16:47;12.25;;;6.50;;
55346;SDS011;41218;55.700;38.270;2023-09-18T00:21:49;12.48;;;6.40;;
55346;SDS011;41218;55.700;38.270;2023-09-18T00:26:52;12.23;;;6.45;;
55346;SDS011;41218;55.700;38.270;2023-09-18T00:31:53;13.48;;;6.72;;
55346;SDS011;41218;55.700;38.270;2023-09-18T00:36:53;10.43;;;6.30;;
55346;SDS011;41218;55.700;38.270;2023-09-18T00:41:54;15.30;;;6.57;;
55346;SDS011;41218;55.700;38.270;2023-09-18T00:46:54;11.80;;;5.83;;
55346;SDS011;41218;55.700;38.270;2023-09-18T00:51:56;13.80;;;6.63;;
55346;SDS011;41218;55.700;38.270;2023-09-18T00:56:57;12.37;;;6.43;;
55346;SDS011;41218;55.700;38.270;2023-09-18T01:01:58;11.50;;;6.25;;
55346;SDS011;41218;55.700;38.270;2023-09-18T01:06:59;11.65;;;6.30;;
55346;SDS011;41218;55.700;38.270;2023-09-18T01:17:10;11.95;;;6.38;;
55346;SDS011;41218;55.700;38.270;2023-09-18T01:22:15;12.60;;;6.53;;
55346;SDS011;41218;55.700;38.270;2023-09-18T01:27:17;16.50;;;6.90;;
55346;SDS011;41218;55.700;38.270;2023-09-18T01:32:18;11.77;;;6.00;;
55346;SDS011;41218;55.700;38.270;2023-09-18T01:37:20;10.88;;;6.28;;
55346;SDS011;41218;55.700;38.270;2023-09-18T01:42:23;12.23;;;6.57;;
55346;SDS011;41218;55.700;38.270;2023-09-18T01:47:26;14.75;;;7.40;;
55346;SDS011;41218;55.700;38.270;2023-09-18T01:52:29;12.10;;;6.53;;
55346;SDS011;41218;55.700;38.270;2023-09-18T01:57:31;14.27;;;7.10;;
55346;SDS011;41218;55.700;38.270;2023-09-18T02:02:32;16.55;;;7.88;;
55346;SDS011;41218;55.700;38.270;2023-09-18T02:07:32;14.17;;;6.67;;
55346;SDS011;41218;55.700;38.270;2023-09-18T02:12:33;15.70;;;7.70;;
55346;SDS011;41218;55.700;38.270;2023-09-18T02:17:33;16.27;;;8.30;;
55346;SDS011;41218;55.700;38.270;2023-09-18T02:22:34;14.53;;;7.57;;
55346;SDS011;41218;55.700;38.270;2023-09-18T02:27:34;17.20;;;8.63;;
55346;SDS011;41218;55.700;38.270;2023-09-18T02:32:35;16.23;;;8.03;;
55346;SDS011;41218;55.700;38.270;2023-09-18T02:37:36;16.85;;;8.10;;
55346;SDS011;41218;55.700;38.270;2023-09-18T02:42:37;15.77;;;8.23;;
55346;SDS011;41218;55.700;38.270;2023-09-18T02:47:37;18.93;;;8.20;;
55346;SDS011;41218;55.700;38.270;2023-09-18T02:52:41;15.98;;;8.65;;
55346;SDS011;41218;55.700;38.270;2023-09-18T02:57:43;15.90;;;8.23;;
55346;SDS011;41218;55.700;38.270;2023-09-18T03:02:43;16.90;;;8.85;;
55346;SDS011;41218;55.700;38.270;2023-09-18T03:07:45;18.92;;;9.02;;
55346;SDS011;41218;55.700;38.270;2023-09-18T03:12:48;19.23;;;9.55;;
55346;SDS011;41218;55.700;38.270;2023-09-18T03:17:50;17.40;;;9.05;;
55346;SDS011;41218;55.700;38.270;2023-09-18T03:22:51;17.00;;;8.82;;
55346;SDS011;41218;55.700;38.270;2023-09-18T03:27:53;15.00;;;8.32;;
55346;SDS011;41218;55.700;38.270;2023-09-18T03:32:55;17.83;;;8.57;;
55346;SDS011;41218;55.700;38.270;2023-09-18T03:37:55;20.73;;;9.57;;
55346;SDS011;41218;55.700;38.270;2023-09-18T03:42:56;17.43;;;9.03;;
55346;SDS011;41218;55.700;38.270;2023-09-18T03:47:58;16.90;;;8.60;;
55346;SDS011;41218;55.700;38.270;2023-09-18T03:52:59;18.47;;;9.20;;
55346;SDS011;41218;55.700;38.270;2023-09-18T03:57:59;16.00;;;8.70;;
55346;SDS011;41218;55.700;38.270;2023-09-18T04:03:00;20.27;;;8.95;;
55346;SDS011;41218;55.700;38.270;2023-09-18T04:08:01;19.23;;;8.80;;
55346;SDS011;41218;55.700;38.270;2023-09-18T04:13:02;17.40;;;8.75;;
55346;SDS011;41218;55.700;38.270;2023-09-18T04:18:04;19.80;;;9.82;;
55346;SDS011;41218;55.700;38.270;2023-09-18T04:28:25;20.23;;;9.43;;
55346;SDS011;41218;55.700;38.270;2023-09-18T04:33:26;21.77;;;9.60;;
55346;SDS011;41218;55.700;38.270;2023-09-18T04:38:28;21.15;;;9.48;;
55346;SDS011;41218;55.700;38.270;2023-09-18T04:43:30;20.30;;;9.23;;
55346;SDS011;41218;55.700;38.270;2023-09-18T04:48:31;17.77;;;9.50;;
55346;SDS011;41218;55.700;38.270;2023-09-18T04:53:32;18.83;;;9.35;;
55346;SDS011;41218;55.700;38.270;2023-09-18T04:58:32;18.37;;;8.90;;
55346;SDS011;41218;55.700;38.270;2023-09-18T05:03:34;17.30;;;8.47;;
55346;SDS011;41218;55.700;38.270;2023-09-18T05:13:35;16.20;;;8.43;;
55346;SDS011;41218;55.700;38.270;2023-09-18T05:18:35;15.00;;;8.50;;
55346;SDS011;41218;55.700;38.270;2023-09-18T05:23:38;15.88;;;8.20;;
55346;SDS011;41218;55.700;38.270;2023-09-18T05:28:38;15.40;;;8.13;;
55346;SDS011;41218;55.700;38.270;2023-09-18T05:33:39;17.63;;;8.23;;
55346;SDS011;41218;55.700;38.270;2023-09-18T05:38:39;16.37;;;8.07;;
55346;SDS011;41218;55.700;38.270;2023-09-18T05:43:40;14.57;;;7.80;;
55346;SDS011;41218;55.700;38.270;2023-09-18T05:48:40;14.57;;;7.97;;
55346;SDS011;41218;55.700;38.270;2023-09-18T05:53:42;15.90;;;7.82;;
55346;SDS011;41218;55.700;38.270;2023-09-18T05:58:43;17.90;;;7.63;;
55346;SDS011;41218;55.700;38.270;2023-09-18T06:03:43;18.23;;;8.35;;
55346;SDS011;41218;55.700;38.270;2023-09-18T06:08:45;12.13;;;7.43;;
55346;SDS011;41218;55.700;38.270;2023-09-18T06:13:45;16.10;;;7.70;;
55346;SDS011;41218;55.700;38.270;2023-09-18T06:18:46;16.40;;;7.77;;
55346;SDS011;41218;55.700;38.270;2023-09-18T06:23:47;13.00;;;7.20;;
55346;SDS011;41218;55.700;38.270;2023-09-18T06:28:47;12.87;;;7.20;;
55346;SDS011;41218;55.700;38.270;2023-09-18T06:33:48;15.00;;;7.23;;
55346;SDS011;41218;55.700;38.270;2023-09-18T06:38:48;11.50;;;7.00;;
55346;SDS011;41218;55.700;38.270;2023-09-18T06:43:50;15.73;;;8.03;;
55346;SDS011;41218;55.700;38.270;2023-09-18T06:48:51;13.40;;;7.80;;
55346;SDS011;41218;55.700;38.270;2023-09-18T06:53:53;14.02;;;7.20;;
55346;SDS011;41218;55.700;38.270;2023-09-18T06:58:54;12.45;;;6.90;;
55346;SDS011;41218;55.700;38.270;2023-09-18T07:03:55;13.57;;;6.63;;
55346;SDS011;41218;55.700;38.270;2023-09-18T07:13:57;13.27;;;7.23;;
55346;SDS011;41218;55.700;38.270;2023-09-18T07:18:58;13.13;;;7.00;;
55346;SDS011;41218;55.700;38.270;2023-09-18T07:23:59;13.32;;;6.53;;
55346;SDS011;41218;55.700;38.270;2023-09-18T07:29:00;13.85;;;7.55;;
55346;SDS011;41218;55.700;38.270;2023-09-18T07:39:01;12.77;;;7.17;;
55346;SDS011;41218;55.700;38.270;2023-09-18T07:44:02;11.80;;;6.50;;
55346;SDS011;41218;55.700;38.270;2023-09-18T07:49:03;12.80;;;6.25;;
55346;SDS011;41218;55.700;38.270;2023-09-18T07:54:04;14.75;;;6.55;;
55346;SDS011;41218;55.700;38.270;2023-09-18T07:59:07;12.02;;;5.82;;
55346;SDS011;41218;55.700;38.270;2023-09-18T08:04:11;11.60;;;6.40;;
55346;SDS011;41218;55.700;38.270;2023-09-18T08:09:11;12.55;;;6.38;;
55346;SDS011;41218;55.700;38.270;2023-09-18T08:14:15;9.57;;;5.72;;
55346;SDS011;41218;55.700;38.270;2023-09-18T08:19:18;9.05;;;5.63;;
55346;SDS011;41218;55.700;38.270;2023-09-18T08:24:20;12.77;;;5.22;;
55346;SDS011;41218;55.700;38.270;2023-09-18T08:29:21;10.25;;;5.68;;
55346;SDS011;41218;55.700;38.270;2023-09-18T08:34:22;9.60;;;5.95;;
55346;SDS011;41218;55.700;38.270;2023-09-18T08:39:23;10.70;;;6.05;;
55346;SDS011;41218;55.700;38.270;2023-09-18T08:44:24;9.93;;;5.90;;
55346;SDS011;41218;55.700;38.270;2023-09-18T08:49:28;13.73;;;6.00;;
55346;SDS011;41218;55.700;38.270;2023-09-18T08:54:29;9.80;;;5.93;;
55346;SDS011;41218;55.700;38.270;2023-09-18T08:59:31;10.50;;;6.45;;
55346;SDS011;41218;55.700;38.270;2023-09-18T09:04:32;10.45;;;6.00;;
55346;SDS011;41218;55.700;38.270;2023-09-18T09:09:33;12.90;;;6.72;;
55346;SDS011;41218;55.700;38.270;2023-09-18T09:14:33;11.63;;;6.90;;
55346;SDS011;41218;55.700;38.270;2023-09-18T09:19:34;13.82;;;7.43;;
55346;SDS011;41218;55.700;38.270;2023-09-18T09:24:43;14.10;;;7.57;;
55346;SDS011;41218;55.700;38.270;2023-09-18T09:29:45;12.23;;;7.05;;
55346;SDS011;41218;55.700;38.270;2023-09-18T09:34:58;13.45;;;7.30;;
55346;SDS011;41218;55.700;38.270;2023-09-18T09:40:07;12.35;;;6.68;;
55346;SDS011;41218;55.700;38.270;2023-09-18T09:45:15;13.25;;;7.75;;
55346;SDS011;41218;55.700;38.270;2023-09-18T09:50:16;11.77;;;7.07;;
55346;SDS011;41218;55.700;38.270;2023-09-18T10:00:22;12.48;;;7.00;;
55346;SDS011;41218;55.700;38.270;2023-09-18T10:05:31;10.55;;;7.18;;
55346;SDS011;41218;55.700;38.270;2023-09-18T10:15:52;9.25;;;5.57;;
55346;SDS011;41218;55.700;38.270;2023-09-18T10:26:22;9.55;;;6.10;;
55346;SDS011;41218;55.700;38.270;2023-09-18T10:31:28;10.98;;;6.07;;
55346;SDS011;41218;55.700;38.270;2023-09-18T10:36:29;10.65;;;5.93;;
55346;SDS011;41218;55.700;38.270;2023-09-18T10:41:31;10.45;;;6.03;;
55346;SDS011;41218;55.700;38.270;2023-09-18T10:51:32;11.70;;;6.00;;
55346;SDS011;41218;55.700;38.270;2023-09-18T10:56:38;13.38;;;6.82;;
55346;SDS011;41218;55.700;38.270;2023-09-18T11:01:40;11.05;;;7.30;;
55346;SDS011;41218;55.700;38.270;2023-09-18T11:17:06;10.95;;;6.78;;
55346;SDS011;41218;55.700;38.270;2023-09-18T11:22:36;11.60;;;6.97;;
55346;SDS011;41218;55.700;38.270;2023-09-18T11:27:56;10.30;;;6.75;;
55346;SDS011;41218;55.700;38.270;2023-09-18T11:32:57;11.55;;;7.22;;
55346;SDS011;41218;55.700;38.270;2023-09-18T11:43:23;12.05;;;6.43;;
55346;SDS011;41218;55.700;38.270;2023-09-18T11:48:26;10.52;;;5.85;;
55346;SDS011;41218;55.700;38.270;2023-09-18T11:53:33;9.63;;;5.55;;
55346;SDS011;41218;55.700;38.270;2023-09-18T11:58:44;8.35;;;5.43;;
55346;SDS011;41218;55.700;38.270;2023-09-18T12:03:54;10.77;;;5.80;;
55346;SDS011;41218;55.700;38.270;2023-09-18T12:09:00;9.23;;;6.20;;
55346;SDS011;41218;55.700;38.270;2023-09-18T12:19:02;8.02;;;4.50;;
55346;SDS011;41218;55.700;38.270;2023-09-18T12:24:06;7.72;;;4.85;;
55346;SDS011;41218;55.700;38.270;2023-09-18T12:34:17;8.23;;;4.97;;
55346;SDS011;41218;55.700;38.270;2023-09-18T12:39:23;10.07;;;4.93;;
55346;SDS011;41218;55.700;38.270;2023-09-18T12:44:31;10.93;;;5.18;;
55346;SDS011;41218;55.700;38.270;2023-09-18T12:54:51;10.37;;;5.37;;
55346;SDS011;41218;55.700;38.270;2023-09-18T12:59:56;6.85;;;5.22;;
55346;SDS011;41218;55.700;38.270;2023-09-18T13:10:05;9.00;;;4.80;;
55346;SDS011;41218;55.700;38.270;2023-09-18T13:15:10;8.85;;;4.95;;
55346;SDS011;41218;55.700;38.270;2023-09-18T13:20:20;7.63;;;4.93;;
55346;SDS011;41218;55.700;38.270;2023-09-18T13:25:26;8.13;;;5.00;;
55346;SDS011;41218;55.700;38.270;2023-09-18T13:30:36;8.48;;;4.65;;
55346;SDS011;41218;55.700;38.270;2023-09-18T13:35:41;8.10;;;4.75;;
55346;SDS011;41218;55.700;38.270;2023-09-18T13:40:44;12.13;;;5.28;;
55346;SDS011;41218;55.700;38.270;2023-09-18T13:45:46;8.57;;;5.05;;
55346;SDS011;41218;55.700;38.270;2023-09-18T13:55:48;8.63;;;5.43;;
55346;SDS011;41218;55.700;38.270;2023-09-18T14:05:50;8.57;;;5.22;;
55346;SDS011;41218;55.700;38.270;2023-09-18T14:10:51;8.55;;;4.90;;
55346;SDS011;41218;55.700;38.270;2023-09-18T14:15:51;7.95;;;5.20;;
55346;SDS011;41218;55.700;38.270;2023-09-18T14:20:52;9.55;;;6.10;;
55346;SDS011;41218;55.700;38.270;2023-09-18T14:30:53;7.80;;;5.03;;
55346;SDS011;41218;55.700;38.270;2023-09-18T14:35:53;9.10;;;5.20;;
55346;SDS011;41218;55.700;38.270;2023-09-18T14:40:55;11.52;;;6.10;;
55346;SDS011;41218;55.700;38.270;2023-09-18T14:46:02;9.77;;;5.68;;
55346;SDS011;41218;55.700;38.270;2023-09-18T14:51:04;7.80;;;4.65;;
55346;SDS011;41218;55.700;38.270;2023-09-18T14:56:06;9.93;;;5.18;;
55346;SDS011;41218;55.700;38.270;2023-09-18T15:06:08;8.43;;;5.17;;
55346;SDS011;41218;55.700;38.270;2023-09-18T15:16:09;6.70;;;4.83;;
55346;SDS011;41218;55.700;38.270;2023-09-18T15:21:10;8.40;;;4.72;;
55346;SDS011;41218;55.700;38.270;2023-09-18T15:26:10;6.97;;;4.43;;
55346;SDS011;41218;55.700;38.270;2023-09-18T15:36:12;7.20;;;4.80;;
55346;SDS011;41218;55.700;38.270;2023-09-18T15:41:13;7.80;;;4.70;;
55346;SDS011;41218;55.700;38.270;2023-09-18T15:46:15;6.70;;;4.38;;
55346;SDS011;41218;55.700;38.270;2023-09-18T15:51:17;6.78;;;4.50;;
55346;SDS011;41218;55.700;38.270;2023-09-18T15:56:19;6.72;;;4.43;;
55346;SDS011;41218;55.700;38.270;2023-09-18T16:01:20;6.05;;;4.43;;
55346;SDS011;41218;55.700;38.270;2023-09-18T16:06:21;6.20;;;4.20;;
55346;SDS011;41218;55.700;38.270;2023-09-18T16:11:22;7.27;;;4.40;;
55346;SDS011;41218;55.700;38.270;2023-09-18T16:16:23;8.65;;;4.80;;
55346;SDS011;41218;55.700;38.270;2023-09-18T16:21:24;9.73;;;4.30;;
55346;SDS011;41218;55.700;38.270;2023-09-18T16:31:26;7.70;;;4.27;;
55346;SDS011;41218;55.700;38.270;2023-09-18T16:36:28;6.72;;;4.10;;
55346;SDS011;41218;55.700;38.270;2023-09-18T16:41:29;9.93;;;4.83;;
55346;SDS011;41218;55.700;38.270;2023-09-18T16:46:29;6.40;;;4.37;;
55346;SDS011;41218;55.700;38.270;2023-09-18T16:51:33;7.45;;;4.80;;
55346;SDS011;41218;55.700;38.270;2023-09-18T16:56:33;7.65;;;4.90;;
55346;SDS011;41218;55.700;38.270;2023-09-18T17:01:35;6.95;;;4.68;;
55346;SDS011;41218;55.700;38.270;2023-09-18T17:06:35;7.88;;;4.60;;
55346;SDS011;41218;55.700;38.270;2023-09-18T17:11:39;7.40;;;4.40;;
55346;SDS011;41218;55.700;38.270;2023-09-18T17:16:40;9.18;;;5.00;;
55346;SDS011;41218;55.700;38.270;2023-09-18T17:21:40;8.90;;;4.68;;
55346;SDS011;41218;55.700;38.270;2023-09-18T17:26:41;7.50;;;4.87;;
55346;SDS011;41218;55.700;38.270;2023-09-18T17:31:41;8.32;;;5.13;;
55346;SDS011;41218;55.700;38.270;2023-09-18T17:41:43;11.20;;;5.60;;
55346;SDS011;41218;55.700;38.270;2023-09-18T17:46:44;9.57;;;5.95;;
55346;SDS011;41218;55.700;38.270;2023-09-18T17:51:46;10.63;;;6.22;;
55346;SDS011;41218;55.700;38.270;2023-09-18T17:56:47;10.43;;;6.00;;
55346;SDS011;41218;55.700;38.270;2023-09-18T18:01:47;11.75;;;6.32;;
55346;SDS011;41218;55.700;38.270;2023-09-18T18:06:48;10.38;;;6.38;;
55346;SDS011;41218;55.700;38.270;2023-09-18T18:11:49;10.27;;;6.37;;
55346;SDS011;41218;55.700;38.270;2023-09-18T18:16:49;10.60;;;6.00;;
55346;SDS011;41218;55.700;38.270;2023-09-18T18:21:50;10.03;;;6.03;;
55346;SDS011;41218;55.700;38.270;2023-09-18T18:26:52;8.77;;;5.80;;
55346;SDS011;41218;55.700;38.270;2023-09-18T18:31:53;11.80;;;6.45;;
55346;SDS011;41218;55.700;38.270;2023-09-18T18:36:54;9.82;;;6.10;;
55346;SDS011;41218;55.700;38.270;2023-09-18T18:41:55;10.73;;;6.55;;
55346;SDS011;41218;55.700;38.270;2023-09-18T18:46:56;11.52;;;6.65;;
55346;SDS011;41218;55.700;38.270;2023-09-18T18:51:57;13.57;;;6.53;;
55346;SDS011;41218;55.700;38.270;2023-09-18T18:56:58;12.70;;;6.60;;
55346;SDS011;41218;55.700;38.270;2023-09-18T19:01:59;11.07;;;6.30;;
55346;SDS011;41218;55.700;38.270;2023-09-18T19:07:00;12.00;;;6.75;;
55346;SDS011;41218;55.700;38.270;2023-09-18T19:12:01;15.30;;;6.88;;
55346;SDS011;41218;55.700;38.270;2023-09-18T19:17:02;11.15;;;6.78;;
55346;SDS011;41218;55.700;38.270;2023-09-18T19:22:04;14.63;;;7.40;;
55346;SDS011;41218;55.700;38.270;2023-09-18T19:32:07;13.37;;;7.43;;
55346;SDS011;41218;55.700;38.270;2023-09-18T19:37:07;11.52;;;6.47;;
55346;SDS011;41218;55.700;38.270;2023-09-18T19:42:10;12.60;;;7.00;;
55346;SDS011;41218;55.700;38.270;2023-09-18T19:47:10;12.50;;;6.90;;
55346;SDS011;41218;55.700;38.270;2023-09-18T19:52:11;11.93;;;6.70;;
55346;SDS011;41218;55.700;38.270;2023-09-18T19:57:16;11.73;;;6.60;;
55346;SDS011;41218;55.700;38.270;2023-09-18T20:02:17;15.33;;;7.40;;
55346;SDS011;41218;55.700;38.270;2023-09-18T20:07:17;12.87;;;6.60;;
55346;SDS011;41218;55.700;38.270;2023-09-18T20:12:18;15.50;;;7.00;;
55346;SDS011;41218;55.700;38.270;2023-09-18T20:17:20;11.32;;;6.97;;
55346;SDS011;41218;55.700;38.270;2023-09-18T20:22:23;13.30;;;6.95;;
55346;SDS011;41218;55.700;38.270;2023-09-18T20:27:25;13.77;;;7.47;;
55346;SDS011;41218;55.700;38.270;2023-09-18T20:32:26;15.70;;;7.40;;
55346;SDS011;41218;55.700;38.270;2023-09-18T20:37:29;12.43;;;7.30;;
55346;SDS011;41218;55.700;38.270;2023-09-18T20:42:29;13.67;;;7.57;;
55346;SDS011;41218;55.700;38.270;2023-09-18T20:47:30;13.93;;;7.60;;
55346;SDS011;41218;55.700;38.270;2023-09-18T20:52:31;15.27;;;7.75;;
55346;SDS011;41218;55.700;38.270;2023-09-18T20:57:31;12.93;;;7.60;;
55346;SDS011;41218;55.700;38.270;2023-09-18T21:02:32;14.90;;;8.03;;
55346;SDS011;41218;55.700;38.270;2023-09-18T21:07:32;17.17;;;7.43;;
55346;SDS011;41218;55.700;38.270;2023-09-18T21:12:33;17.48;;;8.13;;
55346;SDS011;41218;55.700;38.270;2023-09-18T21:17:34;16.37;;;8.13;;
55346;SDS011;41218;55.700;38.270;2023-09-18T21:22:37;14.50;;;8.17;;
55346;SDS011;41218;55.700;38.270;2023-09-18T21:27:40;12.95;;;7.25;;
55346;SDS011;41218;55.700;38.270;2023-09-18T21:32:41;13.40;;;7.25;;
55346;SDS011;41218;55.700;38.270;2023-09-18T21:37:41;17.47;;;7.90;;
55346;SDS011;41218;55.700;38.270;2023-09-18T21:42:42;15.20;;;7.80;;
55346;SDS011;41218;55.700;38.270;2023-09-18T21:47:48;12.18;;;7.03;;
55346;SDS011;41218;55.700;38.270;2023-09-18T21:52:53;14.95;;;7.15;;
55346;SDS011;41218;55.700;38.270;2023-09-18T21:57:54;15.35;;;7.25;;
55346;SDS011;41218;55.700;38.270;2023-09-18T22:02:55;12.88;;;7.18;;
55346;SDS011;41218;55.700;38.270;2023-09-18T22:07:55;13.07;;;6.88;;
55346;SDS011;41218;55.700;38.270;2023-09-18T22:12:56;14.40;;;7.87;;
55346;SDS011;41218;55.700;38.270;2023-09-18T22:17:57;15.27;;;7.43;;
55346;SDS011;41218;55.700;38.270;2023-09-18T22:22:57;29.83;;;8.30;;
55346;SDS011;41218;55.700;38.270;2023-09-18T22:28:04;15.73;;;7.28;;
55346;SDS011;41218;55.700;38.270;2023-09-18T22:33:07;15.68;;;7.22;;
55346;SDS011;41218;55.700;38.270;2023-09-18T22:54:43;18.70;;;7.57;;
55346;SDS011;41218;55.700;38.270;2023-09-18T22:59:50;14.27;;;7.22;;
55346;SDS011;41218;55.700;38.270;2023-09-18T23:04:55;14.75;;;6.80;;
55346;SDS011;41218;55.700;38.270;2023-09-18T23:09:58;15.65;;;7.65;;
55346;SDS011;41218;55.700;38.270;2023-09-18T23:15:00;14.63;;;6.85;;
55346;SDS011;41218;55.700;38.270;2023-09-18T23:20:02;14.63;;;7.05;;
55346;SDS011;41218;55.700;38.270;2023-09-18T23:30:09;14.63;;;6.57;;
55346;SDS011;41218;55.700;38.270;2023-09-18T23:35:17;15.98;;;7.18;;
55346;SDS011;41218;55.700;38.270;2023-09-18T23:40:21;12.35;;;6.22;;
55346;SDS011;41218;55.700;38.270;2023-09-18T23:50:23;15.27;;;7.00;;
55346;SDS011;41218;55.700;38.270;2023-09-18T23:55:29;13.63;;;6.75;;
